Biscotasing, Canada
Current Conditions -  °F | °C
As of 2:00 PM on Friday 24 Oct 2014 (Local Time) from CYLD Reporting Station
Overcast Overcast  
Wind Chill: 43°   Ceiling: 500
Heat Index: 46°   Visibility: 15mi
Dew Point: 45°   Wind: 7mph
Humidity: 93%   Direction: 230°SW
Pressure: 29.89"   Gusts: NA
Location:  47.3°N, 82.1°W
Report Text: CYLD 241800Z 23006KT 15SM OVC005 08/07 A2989 RMK SC8 SLP139
Loading
Personal Weather Stations






























Interactive Weather Map
Tropical Storm Tracking
New forecast layout! Learn more

10-Day Weather Forecast

Advertisements
Track Severe Weather on mobile